Time;durP1;ratioP1;P1;durP2;ratioP2;P2;SDS_P1;SDS_P2;PMS_P1;PMS_P2;Temp;Humidity;BMP_temperature;BMP_pressure;BME280_temperature;BME280_humidity;BME280_pressure;Samples;Min_cycle;Max_cycle;Signal;HPM_P1;HPM_P2
2023/08/16 00:01:16;;;;;;;0.10;0.10;;;20.10;99.90;;;;;;5006232;28;20198;-82
2023/08/16 00:03:42;;;;;;;0.10;0.10;;;20.10;99.90;;;;;;5007220;28;20202;-82
2023/08/16 00:06:12;;;;;;;0.10;0.10;;;19.90;99.90;;;;;;5005241;28;20194;-82
2023/08/16 00:08:38;;;;;;;0.10;0.10;;;20.00;99.90;;;;;;5005030;28;20230;-81
2023/08/16 00:11:04;;;;;;;0.10;0.10;;;20.10;99.90;;;;;;5009293;28;20207;-82
2023/08/16 00:13:30;;;;;;;0.10;0.10;;;20.10;99.90;;;;;;5013281;28;20186;-82
2023/08/16 00:15:55;;;;;;;0.10;0.10;;;20.10;99.90;;;;;;5013163;28;20187;-82
2023/08/16 00:18:21;;;;;;;0.10;0.10;;;20.20;99.90;;;;;;5011861;28;20286;-81
2023/08/16 00:20:46;;;;;;;0.10;0.10;;;20.20;99.90;;;;;;5009289;28;20264;-82
2023/08/16 00:23:12;;;;;;;0.10;0.10;;;20.20;99.90;;;;;;5011118;28;20557;-81
2023/08/16 00:25:39;;;;;;;0.10;0.10;;;20.30;99.90;;;;;;5012081;28;20659;-81
2023/08/16 00:28:04;;;;;;;0.10;0.10;;;20.30;99.90;;;;;;5011259;28;20207;-82
2023/08/16 00:30:30;;;;;;;0.10;0.10;;;20.30;99.90;;;;;;5014505;28;20193;-82
2023/08/16 00:32:56;;;;;;;0.10;0.10;;;20.30;99.90;;;;;;5013831;28;20182;-82
2023/08/16 00:35:21;;;;;;;0.10;0.10;;;20.20;99.90;;;;;;5013431;28;20261;-83
2023/08/16 00:37:47;;;;;;;0.10;0.10;;;20.20;99.90;;;;;;5027118;28;20190;-82
2023/08/16 00:40:13;;;;;;;0.10;0.10;;;20.10;99.90;;;;;;5011747;28;20219;-84
2023/08/16 00:42:39;;;;;;;0.10;0.10;;;20.10;99.90;;;;;;5012961;28;20194;-81
2023/08/16 00:45:06;;;;;;;0.10;0.10;;;20.00;99.90;;;;;;5012839;28;20198;-81
2023/08/16 00:47:32;;;;;;;0.10;0.10;;;20.10;99.90;;;;;;5026370;28;20566;-82
2023/08/16 00:49:57;;;;;;;0.10;0.10;;;20.10;99.90;;;;;;5011640;28;20230;-82
2023/08/16 00:52:23;;;;;;;0.10;0.10;;;20.10;99.90;;;;;;5011991;28;20754;-83
2023/08/16 00:54:49;;;;;;;0.10;0.10;;;20.10;99.90;;;;;;5012705;28;20179;-83
2023/08/16 00:57:14;;;;;;;0.10;0.10;;;20.20;99.90;;;;;;5011547;28;20273;-84
2023/08/16 00:59:40;;;;;;;0.10;0.10;;;20.20;99.90;;;;;;5011041;28;20262;-83
2023/08/16 01:02:05;;;;;;;0.10;0.10;;;20.20;99.90;;;;;;5011265;28;20190;-83
2023/08/16 01:04:31;;;;;;;0.10;0.10;;;20.10;99.90;;;;;;5012408;28;20187;-83
2023/08/16 01:06:57;;;;;;;0.10;0.10;;;20.00;99.90;;;;;;5010703;28;20215;-82
2023/08/16 01:09:24;;;;;;;0.10;0.10;;;19.90;99.90;;;;;;5011435;28;20223;-82
2023/08/16 01:11:56;;;;;;;0.10;0.10;;;20.00;99.90;;;;;;5010286;28;20179;-83
2023/08/16 01:14:30;;;;;;;0.10;0.10;;;20.20;99.90;;;;;;5012665;28;20179;-82
2023/08/16 01:16:57;;;;;;;0.10;0.10;;;20.30;99.90;;;;;;5011875;28;20214;-82
2023/08/16 01:19:32;;;;;;;0.10;0.10;;;20.50;99.90;;;;;;5011597;28;20246;-82
2023/08/16 01:22:08;;;;;;;0.10;0.10;;;20.50;99.90;;;;;;5027157;28;20528;-83
2023/08/16 01:24:44;;;;;;;0.10;0.10;;;20.60;99.90;;;;;;5012465;28;20187;-82
2023/08/16 01:27:10;;;;;;;0.10;0.10;;;20.60;99.90;;;;;;5009048;28;20186;-83
2023/08/16 01:29:36;;;;;;;0.10;0.10;;;20.70;99.90;;;;;;5008157;28;20273;-82
2023/08/16 01:32:02;;;;;;;0.10;0.10;;;20.50;99.90;;;;;;5009347;28;20191;-82
2023/08/16 01:34:27;;;;;;;0.10;0.10;;;20.20;99.90;;;;;;5010189;28;20176;-83
2023/08/16 01:36:53;;;;;;;0.10;0.10;;;20.00;99.90;;;;;;5009840;28;20187;-82
2023/08/16 01:39:18;;;;;;;0.10;0.10;;;19.80;99.90;;;;;;5011590;28;20207;-83
2023/08/16 01:41:50;;;;;;;0.10;0.10;;;19.70;99.90;;;;;;5008739;28;20195;-83
2023/08/16 01:44:18;;;;;;;0.10;0.10;;;19.70;99.90;;;;;;5009501;28;20191;-83
2023/08/16 01:46:45;;;;;;;0.10;0.10;;;19.80;99.90;;;;;;5010719;28;20183;-82
2023/08/16 01:49:12;;;;;;;0.10;0.10;;;19.70;99.90;;;;;;5012304;28;20222;-82
2023/08/16 01:51:38;;;;;;;0.10;0.10;;;19.90;99.90;;;;;;5009370;28;21067;-82
2023/08/16 01:54:03;;;;;;;0.10;0.10;;;19.90;99.90;;;;;;5027016;28;20191;-82
2023/08/16 01:56:29;;;;;;;0.10;0.10;;;20.00;99.90;;;;;;5009477;28;20181;-82
2023/08/16 01:58:54;;;;;;;0.10;0.10;;;20.10;99.90;;;;;;5009343;28;20629;-82
2023/08/16 02:01:21;;;;;;;0.10;0.10;;;20.30;99.90;;;;;;5009876;28;20191;-83
2023/08/16 02:03:46;;;;;;;0.10;0.10;;;20.40;99.90;;;;;;5010416;28;20187;-82
2023/08/16 02:06:12;;;;;;;0.10;0.10;;;20.50;99.90;;;;;;5010219;28;20198;-83
2023/08/16 02:08:37;;;;;;;0.10;0.10;;;20.50;99.90;;;;;;5006788;28;20225;-82
2023/08/16 02:11:03;;;;;;;0.10;0.10;;;20.60;99.90;;;;;;5008609;28;20207;-82
2023/08/16 02:13:28;;;;;;;0.10;0.10;;;20.50;99.90;;;;;;5011623;28;20183;-83
2023/08/16 02:16:03;;;;;;;0.10;0.10;;;20.60;99.90;;;;;;5010986;28;20179;-83
2023/08/16 02:18:30;;;;;;;0.10;0.10;;;20.60;99.90;;;;;;5025499;28;20210;-82
2023/08/16 02:20:56;;;;;;;0.10;0.10;;;20.70;99.90;;;;;;5010049;28;20194;-82
2023/08/16 02:23:21;;;;;;;0.10;0.10;;;20.70;99.90;;;;;;5026152;28;20195;-82
2023/08/16 02:25:47;;;;;;;0.10;0.10;;;20.80;99.90;;;;;;5024534;28;20187;-82
2023/08/16 02:28:13;;;;;;;0.10;0.10;;;20.80;99.90;;;;;;5010292;28;20268;-83
2023/08/16 02:30:38;;;;;;;0.10;0.10;;;20.80;99.90;;;;;;5007897;28;20213;-82
2023/08/16 02:33:04;;;;;;;0.10;0.10;;;20.80;99.90;;;;;;5010031;28;20198;-83
2023/08/16 02:35:29;;;;;;;0.10;0.10;;;20.50;99.90;;;;;;5008590;28;20182;-82
2023/08/16 02:37:55;;;;;;;0.10;0.10;;;20.20;99.90;;;;;;5009094;28;20186;-82
2023/08/16 02:40:20;;;;;;;0.10;0.10;;;20.00;99.90;;;;;;5008679;28;20591;-82
2023/08/16 02:42:49;;;;;;;0.10;0.10;;;19.90;99.90;;;;;;5025029;28;20183;-82
2023/08/16 02:45:15;;;;;;;0.10;0.10;;;19.90;99.90;;;;;;5010261;28;20193;-83
2023/08/16 02:47:40;;;;;;;0.10;0.10;;;19.80;99.90;;;;;;5023978;28;20535;-83
2023/08/16 02:50:06;;;;;;;0.10;0.10;;;19.80;99.90;;;;;;5008727;28;20215;-83
2023/08/16 02:52:32;;;;;;;0.10;0.10;;;19.80;99.90;;;;;;5008244;28;20660;-83
2023/08/16 02:54:57;;;;;;;0.10;0.10;;;19.90;99.90;;;;;;5010644;28;20213;-82
2023/08/16 02:57:23;;;;;;;0.10;0.10;;;19.90;99.90;;;;;;5008374;28;20194;-83
2023/08/16 02:59:48;;;;;;;0.10;0.10;;;19.90;99.90;;;;;;5007536;28;20207;-82
2023/08/16 03:02:14;;;;;;;0.10;0.10;;;19.90;99.90;;;;;;5011014;28;20266;-82
2023/08/16 03:04:40;;;;;;;0.10;0.10;;;20.00;99.90;;;;;;5009172;28;20186;-82
2023/08/16 03:07:09;;;;;;;0.10;0.10;;;19.90;99.90;;;;;;5009657;28;20191;-81
2023/08/16 03:09:36;;;;;;;0.10;0.10;;;19.80;99.90;;;;;;5007684;28;20611;-82
2023/08/16 03:12:02;;;;;;;0.10;0.10;;;19.80;99.90;;;;;;5008858;28;20183;-82
2023/08/16 03:14:28;;;;;;;0.10;0.10;;;19.90;99.90;;;;;;5008422;28;20601;-82
2023/08/16 03:16:54;;;;;;;0.10;0.10;;;19.80;99.90;;;;;;5010403;28;20240;-82
2023/08/16 03:19:20;;;;;;;0.10;0.10;;;19.70;99.90;;;;;;5025185;28;20234;-82
2023/08/16 03:21:45;;;;;;;0.10;0.10;;;19.70;99.90;;;;;;5023132;28;20253;-82
2023/08/16 03:24:11;;;;;;;0.10;0.10;;;19.50;99.90;;;;;;5008490;28;20194;-83
2023/08/16 03:26:37;;;;;;;0.10;0.10;;;19.60;99.90;;;;;;5010081;28;20183;-82
2023/08/16 03:29:03;;;;;;;0.10;0.10;;;19.60;99.90;;;;;;5007610;28;20470;-82
2023/08/16 03:31:29;;;;;;;0.10;0.10;;;19.40;99.90;;;;;;5007456;28;20206;-83
2023/08/16 03:33:54;;;;;;;0.10;0.10;;;19.30;99.90;;;;;;5007809;28;20183;-83
2023/08/16 03:36:20;;;;;;;0.10;0.10;;;19.40;99.90;;;;;;5009682;28;20207;-83
2023/08/16 03:38:45;;;;;;;0.10;0.10;;;19.40;99.90;;;;;;5009841;28;20207;-82
2023/08/16 03:41:11;;;;;;;0.10;0.10;;;19.50;99.90;;;;;;5007408;28;20266;-83
2023/08/16 03:43:37;;;;;;;0.10;0.10;;;19.50;99.90;;;;;;5008279;28;20194;-82
2023/08/16 03:46:03;;;;;;;0.10;0.10;;;19.50;99.90;;;;;;5023524;28;20220;-82
2023/08/16 03:48:29;;;;;;;0.10;0.10;;;19.50;99.90;;;;;;5009349;28;20221;-82
2023/08/16 03:50:55;;;;;;;0.10;0.10;;;19.60;99.90;;;;;;5007555;28;20203;-82
2023/08/16 03:53:20;;;;;;;0.10;0.10;;;19.60;99.90;;;;;;5009809;28;20179;-82
2023/08/16 03:55:46;;;;;;;0.10;0.10;;;19.60;99.90;;;;;;5010428;28;20206;-82
2023/08/16 03:58:12;;;;;;;0.10;0.10;;;19.60;99.90;;;;;;5006404;28;20187;-83
2023/08/16 04:00:37;;;;;;;0.10;0.10;;;19.70;99.90;;;;;;5022511;28;20325;-82
2023/08/16 04:03:04;;;;;;;0.10;0.10;;;19.70;99.90;;;;;;5007692;28;20187;-82
2023/08/16 04:05:30;;;;;;;0.10;0.10;;;19.80;99.90;;;;;;5005569;28;20190;-83
2023/08/16 04:07:55;;;;;;;0.10;0.10;;;19.80;99.90;;;;;;5009737;28;20217;-82
2023/08/16 04:10:22;;;;;;;0.10;0.10;;;19.80;99.90;;;;;;5007091;28;20182;-82
2023/08/16 04:12:47;;;;;;;0.10;0.10;;;19.80;99.90;;;;;;5007504;28;20183;-83
2023/08/16 04:15:13;;;;;;;0.10;0.10;;;19.50;99.90;;;;;;5008011;28;20192;-82
2023/08/16 04:17:39;;;;;;;0.10;0.10;;;19.30;99.90;;;;;;5008853;28;20175;-83
2023/08/16 04:20:10;;;;;;;0.10;0.10;;;19.50;99.90;;;;;;5009024;28;20205;-83
2023/08/16 04:22:35;;;;;;;0.10;0.10;;;19.50;99.90;;;;;;5023334;28;20175;-83
2023/08/16 04:25:01;;;;;;;0.10;0.10;;;19.30;99.90;;;;;;5023779;28;20179;-82
2023/08/16 04:27:27;;;;;;;0.10;0.10;;;19.40;99.90;;;;;;5004722;28;20201;-83
2023/08/16 04:29:53;;;;;;;0.10;0.10;;;19.40;99.90;;;;;;5005729;28;20214;-83
2023/08/16 04:32:18;;;;;;;0.10;0.10;;;19.50;99.90;;;;;;5007119;28;20833;-82
2023/08/16 04:34:44;;;;;;;0.10;0.10;;;19.80;99.90;;;;;;5009905;28;20640;-82
2023/08/16 04:37:10;;;;;;;0.10;0.10;;;19.80;99.90;;;;;;5006047;28;20246;-83
2023/08/16 04:39:35;;;;;;;0.10;0.10;;;19.90;99.90;;;;;;5006122;28;20242;-83
2023/08/16 04:42:01;;;;;;;0.10;0.10;;;20.00;99.90;;;;;;5005225;28;20272;-82
2023/08/16 04:44:26;;;;;;;0.10;0.10;;;20.00;99.90;;;;;;5007058;28;20773;-83
2023/08/16 04:46:52;;;;;;;0.10;0.10;;;20.10;99.90;;;;;;5005959;28;20202;-84
2023/08/16 04:49:18;;;;;;;0.10;0.10;;;20.20;99.90;;;;;;5004681;28;20211;-83
2023/08/16 04:51:44;;;;;;;0.10;0.10;;;20.30;99.90;;;;;;5006192;28;20203;-82
2023/08/16 04:54:09;;;;;;;0.10;0.10;;;20.40;99.90;;;;;;5007319;28;20308;-82
2023/08/16 04:56:36;;;;;;;0.10;0.10;;;20.50;99.90;;;;;;5006676;28;20644;-83
2023/08/16 04:59:01;;;;;;;0.10;0.10;;;20.70;99.90;;;;;;5002055;28;20214;-83
2023/08/16 05:01:27;;;;;;;0.10;0.10;;;20.40;99.90;;;;;;5005130;28;20179;-83
2023/08/16 05:03:53;;;;;;;0.10;0.10;;;20.30;99.90;;;;;;5002971;28;20687;-82
2023/08/16 05:06:19;;;;;;;0.10;0.10;;;20.20;99.90;;;;;;5004829;28;20190;-82
2023/08/16 05:08:46;;;;;;;0.10;0.10;;;20.00;99.90;;;;;;5003673;28;20222;-82
2023/08/16 05:11:12;;;;;;;0.10;0.10;;;19.80;99.90;;;;;;5003948;28;20179;-82
2023/08/16 05:13:37;;;;;;;0.10;0.10;;;20.00;99.90;;;;;;5004542;28;20181;-83
2023/08/16 05:16:03;;;;;;;0.10;0.10;;;20.00;99.90;;;;;;5007274;28;20186;-82
2023/08/16 05:18:29;;;;;;;0.10;0.10;;;19.80;99.90;;;;;;5023967;28;20215;-82
2023/08/16 05:20:59;;;;;;;0.10;0.10;;;19.80;99.90;;;;;;5006703;28;20249;-82
2023/08/16 05:23:24;;;;;;;0.10;0.10;;;20.00;99.90;;;;;;5024212;28;20196;-82
2023/08/16 05:25:50;;;;;;;0.10;0.10;;;20.10;99.90;;;;;;5023886;28;20183;-82
2023/08/16 05:28:15;;;;;;;0.10;0.10;;;20.30;99.90;;;;;;5007396;28;20218;-82
2023/08/16 05:30:41;;;;;;;0.10;0.10;;;20.50;99.90;;;;;;5005442;28;20221;-82
2023/08/16 05:33:06;;;;;;;0.10;0.10;;;20.60;99.90;;;;;;5001524;28;20190;-81
2023/08/16 05:35:33;;;;;;;0.10;0.10;;;20.30;99.90;;;;;;5019366;28;20191;-84
2023/08/16 05:37:59;;;;;;;0.10;0.10;;;20.00;99.90;;;;;;5004870;28;20191;-84
2023/08/16 05:40:24;;;;;;;0.10;0.10;;;20.00;99.90;;;;;;5021274;28;21299;-84
2023/08/16 05:42:50;;;;;;;0.10;0.10;;;20.00;99.90;;;;;;5005701;28;20282;-85
2023/08/16 05:45:15;;;;;;;0.10;0.10;;;20.20;99.90;;;;;;5004954;28;20251;-85
2023/08/16 05:47:41;;;;;;;0.10;0.10;;;20.30;99.90;;;;;;5020913;28;20209;-84
2023/08/16 05:50:07;;;;;;;0.10;0.10;;;20.50;99.90;;;;;;5005727;28;20684;-85
2023/08/16 05:52:33;;;;;;;0.10;0.10;;;20.50;99.90;;;;;;5004823;28;20202;-84
2023/08/16 05:54:58;;;;;;;0.10;0.10;;;20.30;99.90;;;;;;5017983;28;20191;-86
2023/08/16 05:57:24;;;;;;;0.10;0.10;;;20.40;99.90;;;;;;5007569;28;20197;-86
2023/08/16 05:59:49;;;;;;;0.10;0.10;;;20.30;99.90;;;;;;5006247;28;20238;-85
2023/08/16 06:02:15;;;;;;;0.10;0.10;;;20.50;99.90;;;;;;5007211;28;20206;-85
2023/08/16 06:04:41;;;;;;;0.10;0.10;;;20.40;99.90;;;;;;5007799;28;20183;-85
2023/08/16 06:07:06;;;;;;;0.10;0.10;;;20.40;99.90;;;;;;5008050;28;20183;-86
2023/08/16 06:09:34;;;;;;;0.10;0.10;;;20.30;99.90;;;;;;5004619;28;20215;-86
2023/08/16 06:12:00;;;;;;;0.10;0.10;;;20.30;99.90;;;;;;5007966;28;20175;-86
2023/08/16 06:14:26;;;;;;;0.10;0.10;;;20.20;99.90;;;;;;5007401;28;20179;-85
2023/08/16 06:16:53;;;;;;;0.10;0.10;;;20.30;99.90;;;;;;5023974;28;20691;-85
2023/08/16 06:19:19;;;;;;;0.10;0.10;;;20.20;99.90;;;;;;5006390;28;20286;-86
2023/08/16 06:21:47;;;;;;;0.10;0.10;;;20.20;99.90;;;;;;5006060;28;20281;-86
2023/08/16 06:24:13;;;;;;;0.10;0.10;;;20.60;99.90;;;;;;5005474;28;20187;-87
2023/08/16 06:26:39;;;;;;;0.10;0.10;;;20.80;99.90;;;;;;5005603;28;20648;-84
2023/08/16 06:29:06;;;;;;;0.10;0.10;;;21.10;99.90;;;;;;5002943;28;20217;-84
2023/08/16 06:31:31;;;;;;;0.10;0.10;;;21.20;99.90;;;;;;5004068;28;20183;-84
2023/08/16 06:33:57;;;;;;;0.10;0.10;;;21.40;99.90;;;;;;5003046;28;20257;-84
2023/08/16 06:36:24;;;;;;;0.10;0.10;;;21.60;99.90;;;;;;5003999;28;20179;-84
2023/08/16 06:38:50;;;;;;;0.10;0.10;;;21.80;99.90;;;;;;5002395;28;20199;-84
2023/08/16 06:41:16;;;;;;;0.10;0.10;;;21.90;99.90;;;;;;5002096;28;20245;-84
2023/08/16 06:43:42;;;;;;;0.10;0.10;;;22.00;99.90;;;;;;5003923;28;21155;-84
2023/08/16 06:46:07;;;;;;;0.10;0.10;;;22.10;99.90;;;;;;5003429;28;20187;-84
2023/08/16 06:48:33;;;;;;;0.10;0.10;;;21.80;99.90;;;;;;5016806;28;20239;-82
2023/08/16 06:50:58;;;;;;;0.10;0.10;;;21.90;99.90;;;;;;5000638;28;20203;-84
2023/08/16 06:53:25;;;;;;;0.10;0.10;;;22.20;99.90;;;;;;5005330;28;20226;-81
2023/08/16 06:55:54;;;;;;;0.10;0.10;;;22.40;99.90;;;;;;5005240;28;21128;-81
2023/08/16 06:58:20;;;;;;;0.10;0.10;;;22.60;99.90;;;;;;5004275;28;20221;-82
2023/08/16 07:00:47;;;;;;;0.10;0.10;;;22.70;99.90;;;;;;5005048;28;20192;-82
2023/08/16 07:03:13;;;;;;;0.10;0.10;;;22.80;99.90;;;;;;5007530;28;20195;-82
2023/08/16 07:05:39;;;;;;;0.10;0.10;;;22.60;99.90;;;;;;5005357;28;20187;-81
2023/08/16 07:08:06;;;;;;;0.10;0.10;;;22.70;99.90;;;;;;5004956;28;20293;-80
2023/08/16 07:10:31;;;;;;;0.10;0.10;;;22.70;99.90;;;;;;5004370;28;20262;-81
2023/08/16 07:12:57;;;;;;;0.10;0.10;;;22.70;99.90;;;;;;5005999;28;20255;-81
2023/08/16 07:15:22;;;;;;;0.10;0.10;;;22.60;99.90;;;;;;5005151;28;20270;-81
2023/08/16 07:17:48;;;;;;;0.10;0.10;;;22.60;99.90;;;;;;4997329;28;20219;-83
2023/08/16 07:20:13;;;;;;;0.13;0.13;;;22.70;99.90;;;;;;5002437;28;20654;-82
2023/08/16 07:22:39;;;;;;;0.10;0.10;;;22.60;99.90;;;;;;5003271;28;20187;-87
2023/08/16 07:25:06;;;;;;;0.10;0.10;;;22.60;99.90;;;;;;5004827;28;20265;-83
2023/08/16 07:27:32;;;;;;;0.10;0.10;;;22.60;99.90;;;;;;5003998;28;20183;-82
2023/08/16 07:29:58;;;;;;;0.10;0.10;;;22.60;99.90;;;;;;5002817;28;20280;-85
2023/08/16 07:32:23;;;;;;;0.10;0.10;;;22.60;99.90;;;;;;5002763;28;20195;-82
2023/08/16 07:34:49;;;;;;;0.10;0.10;;;22.60;99.90;;;;;;5000729;28;20618;-84
2023/08/16 07:37:15;;;;;;;0.10;0.10;;;22.60;99.90;;;;;;5002257;28;20275;-83
2023/08/16 07:39:41;;;;;;;0.10;0.10;;;22.60;99.90;;;;;;5001698;28;20203;-84
2023/08/16 07:42:09;;;;;;;0.10;0.10;;;22.40;99.90;;;;;;5003675;28;20230;-83
2023/08/16 07:44:36;;;;;;;0.10;0.10;;;22.50;99.90;;;;;;5003463;28;20195;-83
2023/08/16 07:47:02;;;;;;;0.10;0.10;;;22.60;99.90;;;;;;5003928;28;20254;-81
2023/08/16 07:49:27;;;;;;;0.10;0.10;;;22.30;99.90;;;;;;5001339;28;20633;-82
2023/08/16 07:51:57;;;;;;;0.10;0.10;;;22.10;99.90;;;;;;5002171;28;20195;-81
2023/08/16 07:54:23;;;;;;;0.10;0.10;;;21.90;99.90;;;;;;5000255;28;20198;-83
2023/08/16 07:56:49;;;;;;;0.10;0.10;;;22.10;99.90;;;;;;5018177;28;20187;-82
2023/08/16 07:59:15;;;;;;;0.10;0.10;;;22.20;99.90;;;;;;5003496;28;20207;-81
2023/08/16 08:01:40;;;;;;;0.10;0.10;;;22.50;99.90;;;;;;5004480;28;20182;-82
2023/08/16 08:04:06;;;;;;;0.10;0.10;;;22.40;99.90;;;;;;5004002;28;20183;-82
2023/08/16 08:06:32;;;;;;;0.10;0.10;;;22.40;99.90;;;;;;5003957;28;20183;-82
2023/08/16 08:08:58;;;;;;;0.10;0.10;;;22.80;99.90;;;;;;5021065;28;20223;-82
2023/08/16 08:11:23;;;;;;;0.10;0.10;;;23.20;99.90;;;;;;5004696;28;20234;-82
2023/08/16 08:13:49;;;;;;;0.10;0.10;;;23.60;99.90;;;;;;5006013;28;20250;-83
2023/08/16 08:16:14;;;;;;;0.10;0.10;;;23.80;99.90;;;;;;5000713;28;20186;-83
2023/08/16 08:18:40;;;;;;;0.10;0.10;;;23.90;99.90;;;;;;5001092;28;20213;-81
2023/08/16 08:21:06;;;;;;;0.10;0.10;;;23.80;99.90;;;;;;5001255;28;20191;-83
2023/08/16 08:23:31;;;;;;;0.10;0.10;;;23.80;99.90;;;;;;5000641;28;20274;-83
2023/08/16 08:25:57;;;;;;;0.10;0.10;;;23.70;99.90;;;;;;4996627;28;20657;-83
2023/08/16 08:28:22;;;;;;;0.10;0.10;;;23.60;99.90;;;;;;5001623;28;20730;-82
2023/08/16 08:30:48;;;;;;;0.10;0.10;;;23.60;99.90;;;;;;5016267;28;20190;-82
2023/08/16 08:33:14;;;;;;;0.10;0.10;;;23.70;99.90;;;;;;5000886;28;20186;-83
2023/08/16 08:35:40;;;;;;;0.10;0.10;;;23.60;99.90;;;;;;5000981;28;20598;-82
2023/08/16 08:38:05;;;;;;;0.10;0.10;;;23.60;99.90;;;;;;5001158;28;20189;-81
2023/08/16 08:40:31;;;;;;;0.10;0.10;;;23.70;99.90;;;;;;5000687;28;20233;-83
2023/08/16 08:42:59;;;;;;;0.10;0.10;;;24.10;99.90;;;;;;5002045;28;20934;-82
2023/08/16 08:45:27;;;;;;;0.10;0.10;;;24.00;99.90;;;;;;5000182;28;20190;-82
2023/08/16 08:47:55;;;;;;;0.10;0.10;;;24.20;99.90;;;;;;5002571;28;20190;-82
2023/08/16 08:50:20;;;;;;;0.10;0.10;;;24.60;99.90;;;;;;5006845;28;20262;-82
2023/08/16 08:52:51;;;;;;;0.10;0.10;;;24.80;99.90;;;;;;5007191;28;20183;-82
2023/08/16 08:55:18;;;;;;;0.10;0.10;;;24.70;99.90;;;;;;5005872;28;20290;-82
2023/08/16 08:57:50;;;;;;;0.10;0.10;;;24.20;99.90;;;;;;5005075;28;20230;-84
2023/08/16 09:00:18;;;;;;;0.10;0.10;;;23.80;99.90;;;;;;5004030;28;20260;-84
2023/08/16 09:02:46;;;;;;;0.10;0.10;;;24.00;99.90;;;;;;5022812;28;20723;-82
2023/08/16 09:05:13;;;;;;;0.10;0.10;;;24.30;99.90;;;;;;5025965;28;20187;-83
2023/08/16 09:07:41;;;;;;;0.10;0.10;;;24.60;99.90;;;;;;5009044;28;20613;-82
2023/08/16 09:10:08;;;;;;;0.10;0.10;;;24.80;99.90;;;;;;5007576;28;20210;-83
2023/08/16 09:12:34;;;;;;;0.10;0.10;;;25.00;99.90;;;;;;5008563;28;20188;-83
2023/08/16 09:15:00;;;;;;;0.10;0.10;;;25.50;99.90;;;;;;5022594;28;20233;-83
2023/08/16 09:17:25;;;;;;;0.10;0.10;;;25.70;99.90;;;;;;5009050;28;20207;-84
2023/08/16 09:19:51;;;;;;;0.10;0.10;;;25.90;99.90;;;;;;5007941;28;20211;-85
2023/08/16 09:22:16;;;;;;;0.10;0.10;;;25.70;99.90;;;;;;5006655;28;20286;-83
2023/08/16 09:24:43;;;;;;;0.10;0.10;;;25.40;99.90;;;;;;5010498;28;20206;-84
2023/08/16 09:27:09;;;;;;;0.10;0.10;;;25.00;99.90;;;;;;5011994;28;20183;-83
2023/08/16 09:29:40;;;;;;;0.10;0.10;;;25.30;99.90;;;;;;5006291;28;20226;-84
2023/08/16 09:32:09;;;;;;;0.10;0.10;;;25.70;99.90;;;;;;5007397;28;20190;-83
2023/08/16 09:34:35;;;;;;;0.10;0.10;;;26.20;99.90;;;;;;5010221;28;20191;-83
2023/08/16 09:37:05;;;;;;;0.10;0.10;;;26.50;99.90;;;;;;5011811;28;20298;-83
2023/08/16 09:39:31;;;;;;;0.10;0.10;;;26.20;99.90;;;;;;5026165;28;20211;-84
2023/08/16 09:41:57;;;;;;;0.10;0.10;;;25.80;99.90;;;;;;5010484;28;20190;-83
2023/08/16 09:44:29;;;;;;;0.10;0.10;;;25.70;99.90;;;;;;5009444;28;20273;-83
2023/08/16 09:46:57;;;;;;;0.10;0.10;;;26.50;99.90;;;;;;5009436;28;20675;-83
2023/08/16 09:49:23;;;;;;;0.10;0.10;;;26.90;99.90;;;;;;5009696;28;20221;-84
2023/08/16 09:51:49;;;;;;;0.10;0.10;;;26.80;99.90;;;;;;5008732;28;20557;-84
2023/08/16 09:54:17;;;;;;;0.10;0.10;;;27.20;99.90;;;;;;5011732;28;20214;-83
2023/08/16 09:56:43;;;;;;;0.10;0.10;;;27.60;99.90;;;;;;5009263;28;20179;-84
2023/08/16 09:59:11;;;;;;;0.10;0.10;;;27.80;99.90;;;;;;5025062;28;20316;-82
2023/08/16 10:01:37;;;;;;;0.10;0.10;;;27.70;99.90;;;;;;5007957;28;20194;-83
2023/08/16 10:04:03;;;;;;;0.10;0.10;;;27.40;99.90;;;;;;5007967;28;20746;-83
2023/08/16 10:06:33;;;;;;;0.10;0.10;;;28.00;99.90;;;;;;5008047;28;20187;-83
2023/08/16 10:09:02;;;;;;;0.10;0.10;;;27.40;99.90;;;;;;5011165;28;20886;-83
2023/08/16 10:11:28;;;;;;;0.10;0.10;;;27.20;99.90;;;;;;5010348;28;20183;-84
2023/08/16 10:13:54;;;;;;;0.10;0.10;;;27.10;99.90;;;;;;5013012;28;20187;-83
2023/08/16 10:16:22;;;;;;;0.10;0.10;;;27.20;99.90;;;;;;5024553;28;20187;-84
2023/08/16 10:18:51;;;;;;;0.10;0.10;;;27.10;99.90;;;;;;5021955;28;20214;-83
2023/08/16 10:21:17;;;;;;;0.10;0.10;;;26.90;99.90;;;;;;5008203;28;20190;-84
2023/08/16 10:23:44;;;;;;;0.10;0.10;;;26.50;99.90;;;;;;5008833;28;20526;-82
2023/08/16 10:26:19;;;;;;;0.10;0.10;;;26.90;99.90;;;;;;5022128;28;20215;-82
2023/08/16 10:28:50;;;;;;;0.10;0.10;;;26.60;99.90;;;;;;5003330;28;21331;-83
2023/08/16 10:31:20;;;;;;;0.10;0.10;;;27.50;99.90;;;;;;5006500;28;20704;-82
2023/08/16 10:33:49;;;;;;;0.10;0.10;;;27.40;99.90;;;;;;5006236;28;20179;-82
2023/08/16 10:36:16;;;;;;;0.10;0.10;;;27.00;99.90;;;;;;5022624;28;20641;-82
2023/08/16 10:38:42;;;;;;;0.10;0.10;;;26.60;99.90;;;;;;5004048;28;20871;-82
2023/08/16 10:41:15;;;;;;;0.10;0.10;;;26.50;99.90;;;;;;5009537;28;20703;-83
2023/08/16 10:43:51;;;;;;;0.10;0.10;;;26.90;99.90;;;;;;5024361;28;20190;-84
2023/08/16 10:46:31;;;;;;;0.10;0.10;;;27.40;99.90;;;;;;5023061;28;20253;-82
2023/08/16 10:49:02;;;;;;;0.10;0.10;;;27.50;99.90;;;;;;5007664;28;20218;-84
2023/08/16 10:51:28;;;;;;;0.10;0.10;;;27.20;99.90;;;;;;5011397;28;20199;-84
2023/08/16 10:53:58;;;;;;;0.10;0.10;;;27.20;99.90;;;;;;5009525;28;20187;-84
2023/08/16 10:56:23;;;;;;;0.10;0.10;;;27.80;99.90;;;;;;5011142;28;20183;-84
2023/08/16 10:58:50;;;;;;;0.10;0.10;;;27.80;99.90;;;;;;5008682;28;20229;-84
2023/08/16 11:01:17;;;;;;;0.10;0.10;;;28.10;99.90;;;;;;5003844;28;20279;-87
2023/08/16 11:03:49;;;;;;;0.10;0.10;;;28.50;99.90;;;;;;5008065;28;20191;-83
2023/08/16 11:06:18;;;;;;;0.10;0.10;;;28.80;99.90;;;;;;5008580;28;20183;-83
2023/08/16 11:08:45;;;;;;;0.10;0.10;;;28.60;99.90;;;;;;5020320;28;20288;-85
2023/08/16 11:11:12;;;;;;;0.10;0.10;;;28.60;99.90;;;;;;5006892;28;20191;-83
2023/08/16 11:13:41;;;;;;;0.10;0.10;;;28.40;99.90;;;;;;5007359;28;20186;-83
2023/08/16 11:16:09;;;;;;;0.10;0.10;;;28.10;99.90;;;;;;5004291;28;20190;-84
2023/08/16 11:18:35;;;;;;;0.10;0.10;;;28.10;99.90;;;;;;5006620;28;20316;-84
2023/08/16 11:21:03;;;;;;;0.10;0.10;;;28.30;99.90;;;;;;5006790;28;20202;-85
2023/08/16 11:23:37;;;;;;;0.10;0.10;;;28.40;99.90;;;;;;5003279;28;20209;-83
2023/08/16 11:26:03;;;;;;;0.10;0.10;;;28.90;99.90;;;;;;5001523;28;20187;-84
2023/08/16 11:28:30;;;;;;;0.10;0.10;;;29.20;99.90;;;;;;5003654;28;20246;-84
2023/08/16 11:31:01;;;;;;;0.10;0.10;;;28.60;99.90;;;;;;5002122;28;20473;-84
2023/08/16 11:33:35;;;;;;;0.10;0.10;;;28.30;99.90;;;;;;5005193;28;20344;-84
2023/08/16 11:36:02;;;;;;;0.10;0.10;;;28.20;99.90;;;;;;5002785;28;20174;-84
2023/08/16 11:38:28;;;;;;;0.10;0.10;;;28.60;99.90;;;;;;5003223;28;20692;-84
2023/08/16 11:40:58;;;;;;;0.10;0.10;;;28.50;99.90;;;;;;5001737;28;20198;-84
2023/08/16 11:43:30;;;;;;;0.10;0.10;;;28.10;99.90;;;;;;5004795;28;20191;-82
2023/08/16 11:45:57;;;;;;;0.10;0.10;;;28.20;99.90;;;;;;5003517;28;20182;-83
2023/08/16 11:48:29;;;;;;;0.10;0.10;;;28.50;99.90;;;;;;5015931;28;20230;-84
2023/08/16 11:50:55;;;;;;;0.10;0.10;;;28.40;99.90;;;;;;5001816;28;20734;-84
2023/08/16 11:53:22;;;;;;;0.10;0.10;;;28.80;99.90;;;;;;5003051;28;20221;-83
2023/08/16 11:56:02;;;;;;;0.10;0.10;;;28.90;99.90;;;;;;5003387;28;20183;-83
2023/08/16 11:58:28;;;;;;;0.10;0.10;;;29.90;99.90;;;;;;5016669;28;20306;-84
2023/08/16 12:01:04;;;;;;;0.10;0.10;;;29.80;99.90;;;;;;5003226;28;20306;-84
2023/08/16 12:03:33;;;;;;;0.10;0.10;;;30.30;99.90;;;;;;5001442;28;20197;-84
2023/08/16 12:06:08;;;;;;;0.10;0.10;;;30.20;99.90;;;;;;5002839;28;20187;-85
2023/08/16 12:08:33;;;;;;;0.10;0.10;;;30.40;99.90;;;;;;5016619;28;20222;-84
2023/08/16 12:10:59;;;;;;;0.20;0.20;;;30.50;99.90;;;;;;5002154;28;20546;-83
2023/08/16 12:13:24;;;;;;;0.10;0.10;;;30.60;99.90;;;;;;5002633;28;20182;-84
2023/08/16 12:15:50;;;;;;;0.10;0.10;;;29.60;99.90;;;;;;5003251;28;20183;-84
2023/08/16 12:18:20;;;;;;;0.10;0.10;;;29.20;99.90;;;;;;5002971;28;20186;-84
2023/08/16 12:20:49;;;;;;;0.10;0.10;;;29.20;99.90;;;;;;5002004;28;20194;-83
2023/08/16 12:23:16;;;;;;;0.10;0.10;;;28.80;99.90;;;;;;5001962;28;20644;-84
2023/08/16 12:25:42;;;;;;;0.10;0.10;;;28.90;99.90;;;;;;5018962;28;20271;-83
2023/08/16 12:28:08;;;;;;;0.10;0.10;;;28.40;99.90;;;;;;5005857;28;20217;-84
2023/08/16 12:30:33;;;;;;;0.10;0.10;;;28.50;99.90;;;;;;5005669;28;20183;-83
2023/08/16 12:32:59;;;;;;;0.10;0.10;;;28.30;99.90;;;;;;5010057;28;21363;-83
2023/08/16 12:35:25;;;;;;;0.10;0.10;;;28.40;99.90;;;;;;5010318;28;20179;-84
2023/08/16 12:37:50;;;;;;;0.10;0.10;;;28.60;99.90;;;;;;5005864;28;20193;-84
2023/08/16 12:40:16;;;;;;;0.10;0.10;;;29.20;99.90;;;;;;5008029;28;20199;-83
2023/08/16 12:42:41;;;;;;;0.10;0.10;;;28.40;99.90;;;;;;5008752;28;20214;-84
2023/08/16 12:45:08;;;;;;;0.10;0.10;;;29.00;99.90;;;;;;5006575;28;20206;-84